sensor_id;sensor_type;location;lat;lon;timestamp;pressure;altitude;pressure_sealevel;temperature;humidity
79534;BME280;68982;52.160;6.736;2023-11-21T00:01:39;100740.28;;;7.08;100.00
79534;BME280;68982;52.160;6.736;2023-11-21T00:04:05;100742.94;;;7.08;100.00
79534;BME280;68982;52.160;6.736;2023-11-21T00:06:32;100751.00;;;7.08;100.00
79534;BME280;68982;52.160;6.736;2023-11-21T00:08:57;100738.75;;;7.05;100.00
79534;BME280;68982;52.160;6.736;2023-11-21T00:11:23;100736.41;;;7.11;100.00
79534;BME280;68982;52.160;6.736;2023-11-21T00:13:50;100746.16;;;7.12;100.00
79534;BME280;68982;52.160;6.736;2023-11-21T00:16:15;100740.94;;;7.10;100.00
79534;BME280;68982;52.160;6.736;2023-11-21T00:18:41;100750.31;;;7.14;100.00
79534;BME280;68982;52.160;6.736;2023-11-21T00:21:08;100748.31;;;7.08;100.00
79534;BME280;68982;52.160;6.736;2023-11-21T00:23:34;100751.31;;;7.13;100.00
79534;BME280;68982;52.160;6.736;2023-11-21T00:25:59;100749.50;;;7.14;100.00
79534;BME280;68982;52.160;6.736;2023-11-21T00:28:25;100752.66;;;7.17;100.00
79534;BME280;68982;52.160;6.736;2023-11-21T00:30:51;100745.78;;;7.15;100.00
79534;BME280;68982;52.160;6.736;2023-11-21T00:33:16;100745.28;;;7.19;100.00
79534;BME280;68982;52.160;6.736;2023-11-21T00:35:41;100739.41;;;7.16;100.00
79534;BME280;68982;52.160;6.736;2023-11-21T00:38:07;100742.44;;;7.13;100.00
79534;BME280;68982;52.160;6.736;2023-11-21T00:40:33;100749.47;;;7.22;100.00
79534;BME280;68982;52.160;6.736;2023-11-21T00:42:59;100752.50;;;7.19;100.00
79534;BME280;68982;52.160;6.736;2023-11-21T00:45:24;100755.50;;;7.16;100.00
79534;BME280;68982;52.160;6.736;2023-11-21T00:47:50;100758.03;;;7.17;100.00
79534;BME280;68982;52.160;6.736;2023-11-21T00:50:16;100751.31;;;7.13;100.00
79534;BME280;68982;52.160;6.736;2023-11-21T00:52:41;100740.44;;;7.15;100.00
79534;BME280;68982;52.160;6.736;2023-11-21T00:55:07;100742.44;;;7.13;100.00
79534;BME280;68982;52.160;6.736;2023-11-21T00:57:33;100744.78;;;7.16;100.00
79534;BME280;68982;52.160;6.736;2023-11-21T00:59:59;100757.19;;;7.09;100.00
79534;BME280;68982;52.160;6.736;2023-11-21T01:02:25;100751.16;;;7.06;100.00
79534;BME280;68982;52.160;6.736;2023-11-21T01:04:50;100765.22;;;7.09;100.00
79534;BME280;68982;52.160;6.736;2023-11-21T01:07:16;100769.25;;;7.04;100.00
79534;BME280;68982;52.160;6.736;2023-11-21T01:09:41;100773.63;;;7.05;100.00
79534;BME280;68982;52.160;6.736;2023-11-21T01:12:07;100778.97;;;7.05;100.00
79534;BME280;68982;52.160;6.736;2023-11-21T01:14:32;100782.34;;;7.08;100.00
79534;BME280;68982;52.160;6.736;2023-11-21T01:16:58;100783.50;;;7.05;100.00
79534;BME280;68982;52.160;6.736;2023-11-21T01:19:23;100789.03;;;7.03;100.00
79534;BME280;68982;52.160;6.736;2023-11-21T01:21:48;100792.53;;;7.04;100.00
79534;BME280;68982;52.160;6.736;2023-11-21T01:24:14;100797.91;;;7.04;100.00
79534;BME280;68982;52.160;6.736;2023-11-21T01:26:39;100795.56;;;7.01;100.00
79534;BME280;68982;52.160;6.736;2023-11-21T01:29:05;100800.91;;;7.09;100.00
79534;BME280;68982;52.160;6.736;2023-11-21T01:31:30;100800.75;;;7.02;100.00
79534;BME280;68982;52.160;6.736;2023-11-21T01:33:56;100810.13;;;7.06;100.00
79534;BME280;68982;52.160;6.736;2023-11-21T01:36:22;100801.41;;;7.04;100.00
79534;BME280;68982;52.160;6.736;2023-11-21T01:38:47;100809.47;;;7.04;100.00
79534;BME280;68982;52.160;6.736;2023-11-21T01:41:13;100804.44;;;7.01;100.00
79534;BME280;68982;52.160;6.736;2023-11-21T01:43:39;100808.16;;;7.00;100.00
79534;BME280;68982;52.160;6.736;2023-11-21T01:46:05;100818.69;;;7.02;100.00
79534;BME280;68982;52.160;6.736;2023-11-21T01:48:31;100810.47;;;7.03;100.00
79534;BME280;68982;52.160;6.736;2023-11-21T01:50:57;100815.84;;;7.03;100.00
79534;BME280;68982;52.160;6.736;2023-11-21T01:53:24;100819.19;;;7.05;100.00
79534;BME280;68982;52.160;6.736;2023-11-21T01:55:51;100813.50;;;7.00;100.00
79534;BME280;68982;52.160;6.736;2023-11-21T01:58:17;100797.06;;;6.95;100.00
79534;BME280;68982;52.160;6.736;2023-11-21T02:00:43;100817.34;;;7.06;100.00
79534;BME280;68982;52.160;6.736;2023-11-21T02:03:08;100814.16;;;7.02;100.00
79534;BME280;68982;52.160;6.736;2023-11-21T02:05:35;100818.19;;;7.06;100.00
79534;BME280;68982;52.160;6.736;2023-11-21T02:08:01;100823.38;;;7.08;100.00
79534;BME280;68982;52.160;6.736;2023-11-21T02:10:28;100821.88;;;7.05;100.00
79534;BME280;68982;52.160;6.736;2023-11-21T02:12:54;100826.22;;;7.06;100.00
79534;BME280;68982;52.160;6.736;2023-11-21T02:15:21;100803.59;;;6.93;100.00
79534;BME280;68982;52.160;6.736;2023-11-21T02:17:49;100824.56;;;7.05;100.00
79534;BME280;68982;52.160;6.736;2023-11-21T02:20:16;100820.03;;;7.06;100.00
79534;BME280;68982;52.160;6.736;2023-11-21T02:22:44;100822.53;;;6.99;100.00
79534;BME280;68982;52.160;6.736;2023-11-21T02:25:10;100829.41;;;7.02;100.00
79534;BME280;68982;52.160;6.736;2023-11-21T02:27:36;100830.44;;;7.01;100.00
79534;BME280;68982;52.160;6.736;2023-11-21T02:30:01;100829.94;;;7.05;100.00
79534;BME280;68982;52.160;6.736;2023-11-21T02:32:29;100822.03;;;7.04;100.00
79534;BME280;68982;52.160;6.736;2023-11-21T02:34:56;100820.03;;;7.06;100.00
79534;BME280;68982;52.160;6.736;2023-11-21T02:37:26;100816.00;;;7.02;100.00
79534;BME280;68982;52.160;6.736;2023-11-21T02:39:51;100813.84;;;7.05;100.00
79534;BME280;68982;52.160;6.736;2023-11-21T02:42:17;100817.34;;;7.06;100.00
79534;BME280;68982;52.160;6.736;2023-11-21T02:44:43;100823.72;;;7.05;100.00
79534;BME280;68982;52.160;6.736;2023-11-21T02:47:08;100823.22;;;7.01;100.00
79534;BME280;68982;52.160;6.736;2023-11-21T02:49:34;100832.09;;;7.02;100.00
79534;BME280;68982;52.160;6.736;2023-11-21T02:52:01;100828.06;;;6.98;100.00
79534;BME280;68982;52.160;6.736;2023-11-21T02:54:26;100839.66;;;6.98;100.00
79534;BME280;68982;52.160;6.736;2023-11-21T02:56:52;100836.78;;;7.00;100.00
79534;BME280;68982;52.160;6.736;2023-11-21T02:59:18;100843.66;;;7.02;100.00
79534;BME280;68982;52.160;6.736;2023-11-21T03:01:44;100841.97;;;7.01;100.00
79534;BME280;68982;52.160;6.736;2023-11-21T03:04:10;100840.81;;;7.04;100.00
79534;BME280;68982;52.160;6.736;2023-11-21T03:06:35;100848.34;;;7.09;100.00
79534;BME280;68982;52.160;6.736;2023-11-21T03:09:00;100855.56;;;7.08;100.00
79534;BME280;68982;52.160;6.736;2023-11-21T03:11:26;100850.34;;;7.06;100.00
79534;BME280;68982;52.160;6.736;2023-11-21T03:13:51;100859.25;;;7.07;100.00
79534;BME280;68982;52.160;6.736;2023-11-21T03:16:16;100857.22;;;7.09;100.00
79534;BME280;68982;52.160;6.736;2023-11-21T03:18:42;100852.22;;;7.06;100.00
79534;BME280;68982;52.160;6.736;2023-11-21T03:21:08;100856.41;;;7.09;100.00
79534;BME280;68982;52.160;6.736;2023-11-21T03:23:36;100862.94;;;7.06;100.00
79534;BME280;68982;52.160;6.736;2023-11-21T03:26:02;100857.41;;;7.08;100.00
79534;BME280;68982;52.160;6.736;2023-11-21T03:28:28;100877.53;;;7.12;100.00
79534;BME280;68982;52.160;6.736;2023-11-21T03:30:54;100872.34;;;7.10;100.00
79534;BME280;68982;52.160;6.736;2023-11-21T03:33:19;100874.50;;;7.06;100.00
79534;BME280;68982;52.160;6.736;2023-11-21T03:35:45;100877.84;;;7.09;100.00
79534;BME280;68982;52.160;6.736;2023-11-21T03:38:11;100872.00;;;7.05;100.00
79534;BME280;68982;52.160;6.736;2023-11-21T03:40:37;100880.88;;;7.05;100.00
79534;BME280;68982;52.160;6.736;2023-11-21T03:43:02;100871.50;;;7.10;100.00
79534;BME280;68982;52.160;6.736;2023-11-21T03:45:28;100880.22;;;7.12;100.00
79534;BME280;68982;52.160;6.736;2023-11-21T03:47:53;100870.81;;;7.08;100.00
79534;BME280;68982;52.160;6.736;2023-11-21T03:50:19;100868.78;;;7.01;100.00
79534;BME280;68982;52.160;6.736;2023-11-21T03:52:44;100877.50;;;7.03;100.00
79534;BME280;68982;52.160;6.736;2023-11-21T03:55:09;100875.16;;;7.00;100.00
79534;BME280;68982;52.160;6.736;2023-11-21T03:57:35;100869.28;;;6.97;100.00
79534;BME280;68982;52.160;6.736;2023-11-21T04:00:01;100870.13;;;6.97;100.00
79534;BME280;68982;52.160;6.736;2023-11-21T04:02:29;100874.50;;;6.98;100.00
79534;BME280;68982;52.160;6.736;2023-11-21T04:04:54;100865.09;;;6.94;100.00
79534;BME280;68982;52.160;6.736;2023-11-21T04:07:20;100879.00;;;6.98;100.00
79534;BME280;68982;52.160;6.736;2023-11-21T04:09:47;100880.84;;;6.97;100.00
79534;BME280;68982;52.160;6.736;2023-11-21T04:12:12;100886.19;;;6.97;100.00
79534;BME280;68982;52.160;6.736;2023-11-21T04:14:38;100882.16;;;6.93;100.00
79534;BME280;68982;52.160;6.736;2023-11-21T04:17:03;100890.59;;;6.98;100.00
79534;BME280;68982;52.160;6.736;2023-11-21T04:19:29;100885.72;;;6.94;100.00
79534;BME280;68982;52.160;6.736;2023-11-21T04:21:55;100893.06;;;7.00;100.00
79534;BME280;68982;52.160;6.736;2023-11-21T04:24:20;100901.13;;;7.00;100.00
79534;BME280;68982;52.160;6.736;2023-11-21T04:26:45;100899.47;;;6.99;100.00
79534;BME280;68982;52.160;6.736;2023-11-21T04:29:11;100898.94;;;6.95;100.00
79534;BME280;68982;52.160;6.736;2023-11-21T04:31:37;100905.13;;;6.96;100.00
79534;BME280;68982;52.160;6.736;2023-11-21T04:34:02;100906.97;;;6.95;100.00
79534;BME280;68982;52.160;6.736;2023-11-21T04:36:29;100913.00;;;6.97;100.00
79534;BME280;68982;52.160;6.736;2023-11-21T04:38:56;100915.84;;;6.96;100.00
79534;BME280;68982;52.160;6.736;2023-11-21T04:41:21;100923.44;;;7.00;100.00
79534;BME280;68982;52.160;6.736;2023-11-21T04:43:46;100922.06;;;6.96;100.00
79534;BME280;68982;52.160;6.736;2023-11-21T04:46:12;100918.72;;;6.94;100.00
79534;BME280;68982;52.160;6.736;2023-11-21T04:48:37;100929.25;;;6.96;100.00
79534;BME280;68982;52.160;6.736;2023-11-21T04:51:02;100931.78;;;6.97;100.00
79534;BME280;68982;52.160;6.736;2023-11-21T04:53:29;100935.28;;;6.98;100.00
79534;BME280;68982;52.160;6.736;2023-11-21T04:55:54;100937.47;;;7.02;100.00
79534;BME280;68982;52.160;6.736;2023-11-21T04:58:20;100938.50;;;7.01;100.00
79534;BME280;68982;52.160;6.736;2023-11-21T05:00:46;100947.19;;;6.95;100.00
79534;BME280;68982;52.160;6.736;2023-11-21T05:03:11;100948.53;;;6.99;100.00
79534;BME280;68982;52.160;6.736;2023-11-21T05:05:37;100943.88;;;7.01;100.00
79534;BME280;68982;52.160;6.736;2023-11-21T05:08:03;100957.28;;;7.01;100.00
79534;BME280;68982;52.160;6.736;2023-11-21T05:10:28;100955.41;;;7.02;100.00
79534;BME280;68982;52.160;6.736;2023-11-21T05:12:55;100957.59;;;6.98;100.00
79534;BME280;68982;52.160;6.736;2023-11-21T05:15:21;100962.09;;;6.98;100.00
79534;BME280;68982;52.160;6.736;2023-11-21T05:17:46;100956.94;;;6.96;100.00
79534;BME280;68982;52.160;6.736;2023-11-21T05:20:15;100972.16;;;6.96;100.00
79534;BME280;68982;52.160;6.736;2023-11-21T05:22:43;100978.88;;;7.00;100.00
79534;BME280;68982;52.160;6.736;2023-11-21T05:25:08;100978.38;;;6.96;100.00
79534;BME280;68982;52.160;6.736;2023-11-21T05:27:34;100984.72;;;6.95;100.00
79534;BME280;68982;52.160;6.736;2023-11-21T05:30:04;100993.78;;;6.94;100.00
79534;BME280;68982;52.160;6.736;2023-11-21T05:32:31;100985.53;;;6.88;100.00
79534;BME280;68982;52.160;6.736;2023-11-21T05:34:56;101002.69;;;7.03;100.00
79534;BME280;68982;52.160;6.736;2023-11-21T05:37:21;101003.34;;;6.97;100.00
79534;BME280;68982;52.160;6.736;2023-11-21T05:39:48;101000.13;;;6.93;100.00
79534;BME280;68982;52.160;6.736;2023-11-21T05:42:13;101002.81;;;6.93;100.00
79534;BME280;68982;52.160;6.736;2023-11-21T05:44:41;101014.75;;;6.99;100.00
79534;BME280;68982;52.160;6.736;2023-11-21T05:47:07;101021.94;;;6.98;100.00
79534;BME280;68982;52.160;6.736;2023-11-21T05:49:32;101015.91;;;6.96;100.00
79534;BME280;68982;52.160;6.736;2023-11-21T05:51:58;101019.94;;;7.00;100.00
79534;BME280;68982;52.160;6.736;2023-11-21T05:54:24;101022.63;;;7.00;100.00
79534;BME280;68982;52.160;6.736;2023-11-21T05:56:49;101029.66;;;7.01;100.00
79534;BME280;68982;52.160;6.736;2023-11-21T05:59:15;101040.38;;;7.01;100.00
79534;BME280;68982;52.160;6.736;2023-11-21T06:01:40;101049.09;;;7.03;100.00
79534;BME280;68982;52.160;6.736;2023-11-21T06:04:05;101047.41;;;7.02;100.00
79534;BME280;68982;52.160;6.736;2023-11-21T06:06:33;101048.44;;;7.01;100.00
79534;BME280;68982;52.160;6.736;2023-11-21T06:08:58;101048.97;;;7.05;100.00
79534;BME280;68982;52.160;6.736;2023-11-21T06:11:23;101048.28;;;7.03;100.00
79534;BME280;68982;52.160;6.736;2023-11-21T06:13:49;101050.63;;;7.06;100.00
79534;BME280;68982;52.160;6.736;2023-11-21T06:16:15;101036.19;;;6.99;100.00
79534;BME280;68982;52.160;6.736;2023-11-21T06:18:42;101035.50;;;6.97;100.00
79534;BME280;68982;52.160;6.736;2023-11-21T06:21:11;101063.19;;;7.05;100.00
79534;BME280;68982;52.160;6.736;2023-11-21T06:23:37;101064.03;;;7.06;100.00
79534;BME280;68982;52.160;6.736;2023-11-21T06:26:03;101054.47;;;7.03;100.00
79534;BME280;68982;52.160;6.736;2023-11-21T06:28:29;101054.47;;;7.03;100.00
79534;BME280;68982;52.160;6.736;2023-11-21T06:30:55;101068.88;;;7.02;100.00
79534;BME280;68982;52.160;6.736;2023-11-21T06:33:21;101061.50;;;7.04;100.00
79534;BME280;68982;52.160;6.736;2023-11-21T06:35:47;101064.19;;;7.04;100.00
79534;BME280;68982;52.160;6.736;2023-11-21T06:38:12;101071.53;;;7.02;100.00
79534;BME280;68982;52.160;6.736;2023-11-21T06:40:37;101067.88;;;7.03;100.00
79534;BME280;68982;52.160;6.736;2023-11-21T06:43:03;101080.94;;;6.98;100.00
79534;BME280;68982;52.160;6.736;2023-11-21T06:45:32;101078.59;;;7.03;100.00
79534;BME280;68982;52.160;6.736;2023-11-21T06:47:57;101089.34;;;7.03;100.00
79534;BME280;68982;52.160;6.736;2023-11-21T06:50:22;101085.97;;;7.01;100.00
79534;BME280;68982;52.160;6.736;2023-11-21T06:52:48;101095.22;;;7.07;100.00
79534;BME280;68982;52.160;6.736;2023-11-21T06:55:13;101098.75;;;7.08;100.00
79534;BME280;68982;52.160;6.736;2023-11-21T06:57:39;101099.72;;;7.06;100.00
79534;BME280;68982;52.160;6.736;2023-11-21T07:00:05;101110.44;;;7.06;100.00
79534;BME280;68982;52.160;6.736;2023-11-21T07:02:31;101103.09;;;7.09;100.00
79534;BME280;68982;52.160;6.736;2023-11-21T07:04:56;101112.50;;;7.13;100.00
79534;BME280;68982;52.160;6.736;2023-11-21T07:07:22;101117.88;;;7.13;100.00
79534;BME280;68982;52.160;6.736;2023-11-21T07:09:47;101118.56;;;7.15;100.00
79534;BME280;68982;52.160;6.736;2023-11-21T07:12:14;101114.19;;;7.14;100.00
79534;BME280;68982;52.160;6.736;2023-11-21T07:14:39;101118.19;;;7.10;100.00
79534;BME280;68982;52.160;6.736;2023-11-21T07:17:06;101120.53;;;7.13;100.00
79534;BME280;68982;52.160;6.736;2023-11-21T07:19:31;101123.91;;;7.15;100.00
79534;BME280;68982;52.160;6.736;2023-11-21T07:22:00;101118.69;;;7.13;100.00
79534;BME280;68982;52.160;6.736;2023-11-21T07:24:25;101127.13;;;7.18;100.00
79534;BME280;68982;52.160;6.736;2023-11-21T07:26:51;101134.16;;;7.19;100.00
79534;BME280;68982;52.160;6.736;2023-11-21T07:29:22;101138.69;;;7.19;100.00
79534;BME280;68982;52.160;6.736;2023-11-21T07:31:48;101147.09;;;7.24;100.00
79534;BME280;68982;52.160;6.736;2023-11-21T07:34:13;101149.28;;;7.20;100.00
79534;BME280;68982;52.160;6.736;2023-11-21T07:36:38;101162.22;;;7.25;100.00
79534;BME280;68982;52.160;6.736;2023-11-21T07:39:04;101164.56;;;7.28;100.00
79534;BME280;68982;52.160;6.736;2023-11-21T07:41:31;101161.03;;;7.28;100.00
79534;BME280;68982;52.160;6.736;2023-11-21T07:43:57;101173.97;;;7.32;100.00
79534;BME280;68982;52.160;6.736;2023-11-21T07:46:22;101175.28;;;7.28;100.00
79534;BME280;68982;52.160;6.736;2023-11-21T07:48:49;101182.19;;;7.31;100.00
79534;BME280;68982;52.160;6.736;2023-11-21T07:51:14;101186.38;;;7.33;100.00
79534;BME280;68982;52.160;6.736;2023-11-21T07:53:40;101187.53;;;7.31;100.00
79534;BME280;68982;52.160;6.736;2023-11-21T07:56:06;101202.31;;;7.35;100.00
79534;BME280;68982;52.160;6.736;2023-11-21T07:58:36;101200.84;;;7.40;100.00
79534;BME280;68982;52.160;6.736;2023-11-21T08:01:02;101197.50;;;7.38;100.00
79534;BME280;68982;52.160;6.736;2023-11-21T08:03:28;101208.94;;;7.48;100.00
79534;BME280;68982;52.160;6.736;2023-11-21T08:05:58;101210.78;;;7.48;100.00
79534;BME280;68982;52.160;6.736;2023-11-21T08:08:24;101219.38;;;7.52;100.00
79534;BME280;68982;52.160;6.736;2023-11-21T08:10:50;101214.00;;;7.52;100.00
79534;BME280;68982;52.160;6.736;2023-11-21T08:13:28;101219.38;;;7.52;100.00
79534;BME280;68982;52.160;6.736;2023-11-21T08:15:55;101227.41;;;7.52;100.00
79534;BME280;68982;52.160;6.736;2023-11-21T08:18:21;101231.91;;;7.51;100.00
79534;BME280;68982;52.160;6.736;2023-11-21T08:20:47;101238.66;;;7.55;100.00
79534;BME280;68982;52.160;6.736;2023-11-21T08:23:15;101250.44;;;7.62;100.00
79534;BME280;68982;52.160;6.736;2023-11-21T08:25:44;101252.63;;;7.59;100.00
79534;BME280;68982;52.160;6.736;2023-11-21T08:28:10;101249.78;;;7.60;100.00
79534;BME280;68982;52.160;6.736;2023-11-21T08:30:35;101245.94;;;7.63;100.00
79534;BME280;68982;52.160;6.736;2023-11-21T08:33:01;101254.66;;;7.65;100.00
79534;BME280;68982;52.160;6.736;2023-11-21T08:35:28;101253.81;;;7.64;100.00
79534;BME280;68982;52.160;6.736;2023-11-21T08:37:53;101252.66;;;7.67;100.00
79534;BME280;68982;52.160;6.736;2023-11-21T08:40:19;101253.31;;;7.69;100.00
79534;BME280;68982;52.160;6.736;2023-11-21T08:42:46;101253.53;;;7.76;100.00
79534;BME280;68982;52.160;6.736;2023-11-21T08:45:11;101262.59;;;7.75;100.00
79534;BME280;68982;52.160;6.736;2023-11-21T08:47:38;101259.22;;;7.73;100.00
79534;BME280;68982;52.160;6.736;2023-11-21T08:50:05;101269.34;;;7.79;100.00
79534;BME280;68982;52.160;6.736;2023-11-21T08:52:33;101269.63;;;7.76;100.00
79534;BME280;68982;52.160;6.736;2023-11-21T08:54:58;101273.19;;;7.76;100.00
79534;BME280;68982;52.160;6.736;2023-11-21T08:57:28;101281.25;;;7.76;100.00
79534;BME280;68982;52.160;6.736;2023-11-21T08:59:53;101275.38;;;7.81;100.00
79534;BME280;68982;52.160;6.736;2023-11-21T09:02:21;101291.00;;;7.85;100.00
79534;BME280;68982;52.160;6.736;2023-11-21T09:04:48;101285.94;;;7.82;100.00
79534;BME280;68982;52.160;6.736;2023-11-21T09:07:13;101298.38;;;7.83;100.00
79534;BME280;68982;52.160;6.736;2023-11-21T09:09:39;101295.69;;;7.83;100.00
79534;BME280;68982;52.160;6.736;2023-11-21T09:12:04;101299.22;;;7.84;100.00
79534;BME280;68982;52.160;6.736;2023-11-21T09:14:30;101299.22;;;7.84;100.00
79534;BME280;68982;52.160;6.736;2023-11-21T09:16:55;101310.31;;;7.89;100.00
79534;BME280;68982;52.160;6.736;2023-11-21T09:19:21;101304.44;;;7.85;100.00
79534;BME280;68982;52.160;6.736;2023-11-21T09:21:46;101314.84;;;7.88;100.00
79534;BME280;68982;52.160;6.736;2023-11-21T09:24:12;101318.22;;;7.91;100.00
79534;BME280;68982;52.160;6.736;2023-11-21T09:26:37;101318.22;;;7.91;100.00
79534;BME280;68982;52.160;6.736;2023-11-21T09:29:03;101326.22;;;7.82;100.00
79534;BME280;68982;52.160;6.736;2023-11-21T09:31:28;101337.34;;;7.87;100.00
79534;BME280;68982;52.160;6.736;2023-11-21T09:33:54;101333.66;;;7.88;100.00
79534;BME280;68982;52.160;6.736;2023-11-21T09:36:19;101342.03;;;7.85;100.00
79534;BME280;68982;52.160;6.736;2023-11-21T09:38:47;101338.03;;;7.89;100.00
79534;BME280;68982;52.160;6.736;2023-11-21T09:41:42;101341.56;;;7.90;100.00
79534;BME280;68982;52.160;6.736;2023-11-21T09:44:13;101339.59;;;8.00;100.00
79534;BME280;68982;52.160;6.736;2023-11-21T09:46:41;101343.50;;;8.06;100.00
79534;BME280;68982;52.160;6.736;2023-11-21T09:49:09;101352.91;;;8.10;100.00
79534;BME280;68982;52.160;6.736;2023-11-21T09:51:39;101357.13;;;8.13;100.00
79534;BME280;68982;52.160;6.736;2023-11-21T09:54:08;101352.78;;;8.12;100.00
79534;BME280;68982;52.160;6.736;2023-11-21T09:56:35;101359.81;;;8.13;100.00
79534;BME280;68982;52.160;6.736;2023-11-21T09:59:01;101364.00;;;8.15;100.00
79534;BME280;68982;52.160;6.736;2023-11-21T10:01:35;101370.22;;;8.16;100.00
79534;BME280;68982;52.160;6.736;2023-11-21T10:04:01;101367.72;;;8.14;100.00
79534;BME280;68982;52.160;6.736;2023-11-21T10:06:27;101372.22;;;8.14;100.00
79534;BME280;68982;52.160;6.736;2023-11-21T10:08:54;101377.44;;;8.15;100.00
79534;BME280;68982;52.160;6.736;2023-11-21T10:11:24;101385.22;;;8.18;100.00
79534;BME280;68982;52.160;6.736;2023-11-21T10:13:54;101383.50;;;8.17;100.00
79534;BME280;68982;52.160;6.736;2023-11-21T10:16:20;101386.25;;;8.25;100.00
79534;BME280;68982;52.160;6.736;2023-11-21T10:18:49;101386.06;;;8.27;100.00
79534;BME280;68982;52.160;6.736;2023-11-21T10:21:17;101392.13;;;8.29;100.00
79534;BME280;68982;52.160;6.736;2023-11-21T10:23:44;101395.13;;;8.26;100.00
79534;BME280;68982;52.160;6.736;2023-11-21T10:26:11;101400.38;;;8.27;100.00
79534;BME280;68982;52.160;6.736;2023-11-21T10:28:54;101394.78;;;8.21;100.00
79534;BME280;68982;52.160;6.736;2023-11-21T10:31:20;101397.34;;;8.30;100.00
79534;BME280;68982;52.160;6.736;2023-11-21T10:33:46;101401.56;;;8.33;100.00
79534;BME280;68982;52.160;6.736;2023-11-21T10:36:11;101399.69;;;8.34;100.00
79534;BME280;68982;52.160;6.736;2023-11-21T10:38:42;101397.41;;;8.39;100.00
79534;BME280;68982;52.160;6.736;2023-11-21T10:41:11;101396.09;;;8.43;100.00
79534;BME280;68982;52.160;6.736;2023-11-21T10:43:38;101395.44;;;8.41;100.00
79534;BME280;68982;52.160;6.736;2023-11-21T10:46:04;101412.06;;;8.44;100.00
79534;BME280;68982;52.160;6.736;2023-11-21T10:48:31;101412.25;;;8.51;100.00
79534;BME280;68982;52.160;6.736;2023-11-21T10:50:57;101416.25;;;8.47;100.00
79534;BME280;68982;52.160;6.736;2023-11-21T10:53:22;101410.88;;;8.47;100.00
79534;BME280;68982;52.160;6.736;2023-11-21T10:55:49;101419.81;;;8.47;100.00
79534;BME280;68982;52.160;6.736;2023-11-21T10:58:14;101418.00;;;8.56;100.00
79534;BME280;68982;52.160;6.736;2023-11-21T11:00:40;101410.94;;;8.55;100.00
79534;BME280;68982;52.160;6.736;2023-11-21T11:03:06;101422.72;;;8.62;100.00
79534;BME280;68982;52.160;6.736;2023-11-21T11:05:35;101430.09;;;8.60;100.00
79534;BME280;68982;52.160;6.736;2023-11-21T11:08:05;101429.13;;;8.61;100.00
79534;BME280;68982;52.160;6.736;2023-11-21T11:10:31;101433.44;;;8.54;100.00
79534;BME280;68982;52.160;6.736;2023-11-21T11:12:57;101436.78;;;8.48;100.00
79534;BME280;68982;52.160;6.736;2023-11-21T11:15:24;101442.16;;;8.48;100.00
79534;BME280;68982;52.160;6.736;2023-11-21T11:17:50;101448.69;;;8.45;100.00
79534;BME280;68982;52.160;6.736;2023-11-21T11:20:17;101439.47;;;8.48;100.00
79534;BME280;68982;52.160;6.736;2023-11-21T11:28:42;101439.78;;;8.45;100.00
79534;BME280;68982;52.160;6.736;2023-11-21T11:31:29;101443.00;;;8.48;100.00
79534;BME280;68982;52.160;6.736;2023-11-21T11:34:07;101440.31;;;8.48;100.00
79534;BME280;68982;52.160;6.736;2023-11-21T11:36:48;101447.53;;;8.48;100.00
79534;BME280;68982;52.160;6.736;2023-11-21T11:39:27;101458.28;;;8.48;100.00
79534;BME280;68982;52.160;6.736;2023-11-21T11:41:53;101455.91;;;8.45;100.00
79534;BME280;68982;52.160;6.736;2023-11-21T11:44:51;101448.16;;;8.42;100.00
79534;BME280;68982;52.160;6.736;2023-11-21T11:47:25;101469.34;;;8.45;100.00
79534;BME280;68982;52.160;6.736;2023-11-21T11:52:52;101468.09;;;8.39;100.00
79534;BME280;68982;52.160;6.736;2023-11-21T11:55:19;101470.69;;;8.41;100.00
79534;BME280;68982;52.160;6.736;2023-11-21T11:57:53;101477.72;;;8.42;100.00
79534;BME280;68982;52.160;6.736;2023-11-21T12:02:55;101488.69;;;8.48;100.00
79534;BME280;68982;52.160;6.736;2023-11-21T12:05:25;101490.38;;;8.49;100.00
79534;BME280;68982;52.160;6.736;2023-11-21T12:07:56;101491.84;;;8.44;100.00
79534;BME280;68982;52.160;6.736;2023-11-21T12:10:27;101496.81;;;8.39;100.00
79534;BME280;68982;52.160;6.736;2023-11-21T12:12:56;101496.38;;;8.43;100.00
79534;BME280;68982;52.160;6.736;2023-11-21T12:15:22;101503.63;;;8.43;100.00
79534;BME280;68982;52.160;6.736;2023-11-21T12:17:49;101514.38;;;8.43;100.00
79534;BME280;68982;52.160;6.736;2023-11-21T12:20:18;101515.88;;;8.45;100.00
79534;BME280;68982;52.160;6.736;2023-11-21T12:25:23;101518.41;;;8.47;100.00
79534;BME280;68982;52.160;6.736;2023-11-21T12:27:50;101524.94;;;8.44;100.00
79534;BME280;68982;52.160;6.736;2023-11-21T12:30:17;101532.25;;;8.34;100.00
79534;BME280;68982;52.160;6.736;2023-11-21T12:32:44;101526.22;;;8.14;100.00
79534;BME280;68982;52.160;6.736;2023-11-21T12:35:12;101528.91;;;8.14;100.00
79534;BME280;68982;52.160;6.736;2023-11-21T12:37:39;101526.69;;;8.09;100.00
79534;BME280;68982;52.160;6.736;2023-11-21T12:40:06;101535.19;;;8.05;100.00
79534;BME280;68982;52.160;6.736;2023-11-21T12:42:33;101542.03;;;7.99;100.00
79534;BME280;68982;52.160;6.736;2023-11-21T12:45:26;101548.69;;;7.95;100.00
79534;BME280;68982;52.160;6.736;2023-11-21T12:47:55;101561.06;;;7.88;100.00
79534;BME280;68982;52.160;6.736;2023-11-21T12:50:25;101561.88;;;7.88;100.00
79534;BME280;68982;52.160;6.736;2023-11-21T12:53:07;101558.50;;;7.86;100.00
79534;BME280;68982;52.160;6.736;2023-11-21T12:55:37;101567.94;;;7.91;100.00
79534;BME280;68982;52.160;6.736;2023-11-21T12:58:04;101572.94;;;7.85;100.00
79534;BME280;68982;52.160;6.736;2023-11-21T13:00:43;101565.59;;;7.87;100.00
79534;BME280;68982;52.160;6.736;2023-11-21T13:03:11;101561.88;;;7.88;100.00